Time;durP1;ratioP1;P1;durP2;ratioP2;P2;SDS_P1;SDS_P2;PMS_P1;PMS_P2;Temp;Humidity;BMP_temperature;BMP_pressure;BME280_temperature;BME280_humidity;BME280_pressure;Samples;Min_cycle;Max_cycle;Signal;HPM_P1;HPM_P2
2020/12/17 00:00:19;;;;;;;11.32;8.20;;;10.00;94.30;;;;;;5063271;28;20474;-88
2020/12/17 00:02:44;;;;;;;13.13;8.38;;;10.00;94.30;;;;;;5091297;28;20044;-88
2020/12/17 00:05:10;;;;;;;12.02;8.18;;;10.00;94.20;;;;;;5079515;28;20216;-89
2020/12/17 00:07:37;;;;;;;12.73;8.93;;;10.10;94.30;;;;;;5072675;28;20605;-89
2020/12/17 00:10:08;;;;;;;10.45;8.10;;;10.10;94.30;;;;;;5064584;28;20040;-88
2020/12/17 00:12:35;;;;;;;9.55;7.10;;;10.10;94.30;;;;;;5091436;28;20035;-89
2020/12/17 00:15:02;;;;;;;10.90;8.40;;;10.10;94.30;;;;;;5069970;28;20032;-88
2020/12/17 00:17:28;;;;;;;10.63;8.00;;;10.20;94.30;;;;;;5091604;28;20028;-88
2020/12/17 00:19:54;;;;;;;11.57;8.45;;;10.20;94.20;;;;;;5063043;28;20028;-88
2020/12/17 00:22:19;;;;;;;11.88;8.43;;;10.20;94.20;;;;;;5076434;28;20032;-89
2020/12/17 00:24:45;;;;;;;11.07;8.73;;;10.20;94.00;;;;;;5069343;22;20066;-95
2020/12/17 00:27:11;;;;;;;13.88;8.57;;;10.20;94.00;;;;;;5081527;28;20028;-95
2020/12/17 00:29:36;;;;;;;11.90;8.23;;;10.10;94.10;;;;;;5082341;28;20542;-95
2020/12/17 00:32:02;;;;;;;10.48;8.40;;;10.20;94.00;;;;;;5081803;28;20054;-95
2020/12/17 00:34:28;;;;;;;12.25;8.70;;;10.10;94.00;;;;;;5081671;28;20024;-95
2020/12/17 00:36:54;;;;;;;11.55;8.65;;;10.10;94.00;;;;;;5081402;28;20099;-95
2020/12/17 00:39:20;;;;;;;12.48;8.73;;;10.20;94.00;;;;;;5080906;28;20024;-94
2020/12/17 00:41:47;;;;;;;11.60;8.10;;;10.10;93.90;;;;;;5080816;28;20020;-96
2020/12/17 00:44:13;;;;;;;11.13;7.40;;;10.10;93.90;;;;;;5080428;28;20032;-94
2020/12/17 00:46:38;;;;;;;12.60;8.63;;;10.10;94.00;;;;;;5080897;28;20074;-94
2020/12/17 00:49:04;;;;;;;10.93;7.68;;;10.10;94.00;;;;;;5080334;28;20020;-95
2020/12/17 00:51:30;;;;;;;10.52;7.50;;;10.00;94.00;;;;;;5080915;28;20024;-96
2020/12/17 00:53:55;;;;;;;11.65;7.43;;;10.00;94.00;;;;;;5080071;28;20019;-95
2020/12/17 00:56:21;;;;;;;9.43;7.65;;;10.00;94.00;;;;;;5081130;28;20097;-94
2020/12/17 00:58:47;;;;;;;11.50;7.60;;;10.00;94.10;;;;;;5082619;28;20028;-94
2020/12/17 01:01:12;;;;;;;10.68;7.22;;;10.00;94.10;;;;;;5083534;28;20028;-93
2020/12/17 01:03:56;;;;;;;11.18;6.80;;;10.10;94.20;;;;;;5083322;28;20031;-95
2020/12/17 01:06:22;;;;;;;10.40;7.25;;;10.10;94.20;;;;;;5082724;28;20024;-95
2020/12/17 01:08:48;;;;;;;9.88;7.53;;;10.10;94.10;;;;;;5083316;28;20496;-95
2020/12/17 01:11:13;;;;;;;15.27;9.13;;;10.10;94.10;;;;;;5087374;28;20024;-92
2020/12/17 01:13:39;;;;;;;10.45;7.90;;;10.10;94.00;;;;;;5087083;28;20028;-94
2020/12/17 01:16:04;;;;;;;12.57;8.82;;;10.10;93.90;;;;;;5080506;28;20027;-94
2020/12/17 01:18:30;;;;;;;10.85;8.18;;;10.10;93.90;;;;;;5079863;28;20051;-94
2020/12/17 01:20:56;;;;;;;10.82;8.43;;;10.10;93.80;;;;;;5079356;28;20027;-95
2020/12/17 01:23:21;;;;;;;10.00;7.35;;;10.10;93.80;;;;;;5079896;28;20024;-94
2020/12/17 01:25:47;;;;;;;10.23;7.22;;;10.10;94.10;;;;;;5079297;28;20405;-94
2020/12/17 01:28:13;;;;;;;11.63;7.45;;;10.10;93.80;;;;;;5079823;28;20119;-95
2020/12/17 01:30:39;;;;;;;10.13;6.82;;;10.10;93.70;;;;;;5079679;28;20021;-94
2020/12/17 01:33:05;;;;;;;11.23;6.97;;;10.10;93.60;;;;;;5079255;28;20024;-94
2020/12/17 01:35:30;;;;;;;12.05;6.97;;;10.00;93.50;;;;;;5079099;28;20496;-95
2020/12/17 01:37:56;;;;;;;10.32;6.43;;;10.10;93.70;;;;;;5079133;28;20031;-95
2020/12/17 01:40:21;;;;;;;8.55;6.18;;;10.10;93.90;;;;;;5079056;28;20090;-95
2020/12/17 01:42:47;;;;;;;8.23;6.32;;;10.00;93.60;;;;;;5079474;28;20024;-96
2020/12/17 01:45:13;;;;;;;8.95;6.30;;;10.00;93.60;;;;;;5078870;28;20035;-94
2020/12/17 01:47:39;;;;;;;8.75;6.57;;;10.00;93.60;;;;;;5078565;28;20043;-96
2020/12/17 01:50:08;;;;;;;9.45;6.43;;;10.00;93.50;;;;;;5078512;28;20016;-95
2020/12/17 01:52:34;;;;;;;8.45;5.93;;;10.10;93.40;;;;;;5078473;28;20020;-95
2020/12/17 01:58:26;;;;;;;9.88;6.60;;;10.10;93.50;;;;;;5097707;28;20030;-96
2020/12/17 02:00:55;;;;;;;8.30;6.43;;;10.10;93.60;;;;;;5081092;28;20111;-95
2020/12/17 02:03:21;;;;;;;10.18;6.50;;;10.10;93.70;;;;;;5081762;28;20028;-95
2020/12/17 02:05:49;;;;;;;11.38;7.28;;;10.10;93.70;;;;;;5082797;28;20091;-94
2020/12/17 02:08:19;;;;;;;9.30;6.35;;;10.10;93.80;;;;;;5081799;28;20081;-95
2020/12/17 02:10:45;;;;;;;13.60;6.78;;;10.10;93.80;;;;;;5083049;28;20016;-96
2020/12/17 02:13:12;;;;;;;8.35;6.07;;;10.10;93.90;;;;;;5085890;28;20026;-95
2020/12/17 02:15:38;;;;;;;11.00;7.25;;;10.10;93.90;;;;;;5089391;28;20024;-95
2020/12/17 02:18:05;;;;;;;14.50;7.05;;;10.10;94.00;;;;;;5092058;28;20024;-96
2020/12/17 02:23:55;;;;;;;10.07;7.00;;;10.10;94.10;;;;;;5105198;28;20038;-96
2020/12/17 02:26:20;;;;;;;10.38;7.15;;;10.00;94.10;;;;;;5083978;28;20047;-95
2020/12/17 02:28:46;;;;;;;10.10;7.03;;;10.00;94.30;;;;;;5085417;28;20020;-96
2020/12/17 02:31:12;;;;;;;9.65;7.18;;;10.00;94.20;;;;;;5083082;28;20036;-95
2020/12/17 02:33:38;;;;;;;12.98;7.32;;;10.00;94.20;;;;;;5086409;28;20487;-96
2020/12/17 02:36:04;;;;;;;10.73;7.50;;;10.10;94.30;;;;;;5082704;28;20432;-93
2020/12/17 02:38:29;;;;;;;9.75;6.47;;;10.10;94.30;;;;;;5081894;28;20031;-93
2020/12/17 02:40:55;;;;;;;9.00;6.57;;;10.10;94.20;;;;;;5079584;28;20511;-95
2020/12/17 02:43:21;;;;;;;9.45;7.35;;;10.10;94.30;;;;;;5079517;28;20024;-93
2020/12/17 02:45:48;;;;;;;10.10;7.07;;;10.10;94.20;;;;;;5079103;28;20031;-94
2020/12/17 02:48:15;;;;;;;9.88;7.90;;;10.10;94.20;;;;;;5079954;28;20044;-94
2020/12/17 02:50:41;;;;;;;10.20;7.47;;;10.10;94.20;;;;;;5080287;28;20020;-93
2020/12/17 02:53:08;;;;;;;11.00;7.43;;;10.10;94.30;;;;;;5078978;28;20020;-94
2020/12/17 02:55:34;;;;;;;11.95;7.53;;;10.10;94.30;;;;;;5078759;28;20016;-94
2020/12/17 02:58:00;;;;;;;12.27;7.03;;;10.00;94.30;;;;;;5079540;28;20031;-93
2020/12/17 03:00:26;;;;;;;9.23;6.97;;;10.00;94.30;;;;;;5082202;28;20020;-94
2020/12/17 03:02:52;;;;;;;11.07;7.13;;;10.10;94.30;;;;;;5088229;28;20024;-94
2020/12/17 03:05:18;;;;;;;10.75;7.43;;;10.10;94.20;;;;;;5079525;28;20052;-94
2020/12/17 03:07:44;;;;;;;9.48;6.78;;;10.10;94.30;;;;;;5078792;28;20381;-95
2020/12/17 03:10:13;;;;;;;9.75;7.55;;;10.10;94.30;;;;;;5079505;28;20024;-96
2020/12/17 03:12:48;;;;;;;12.52;7.40;;;10.00;94.30;;;;;;5082902;28;20072;-94
2020/12/17 03:15:14;;;;;;;9.90;6.53;;;10.00;94.40;;;;;;5083117;28;20088;-95
2020/12/17 03:17:40;;;;;;;9.68;7.00;;;10.00;94.30;;;;;;5084516;28;20055;-94
2020/12/17 03:20:08;;;;;;;10.63;7.60;;;10.10;94.40;;;;;;5083485;28;20028;-95
2020/12/17 03:22:35;;;;;;;10.23;6.60;;;10.00;94.30;;;;;;5094692;28;20051;-93
2020/12/17 03:25:01;;;;;;;10.88;7.05;;;10.10;94.30;;;;;;5095658;28;20043;-92
2020/12/17 03:27:26;;;;;;;11.18;6.63;;;10.10;94.30;;;;;;5085346;28;20020;-92
2020/12/17 03:29:53;;;;;;;12.43;7.38;;;10.10;94.30;;;;;;5102312;28;20134;-93
2020/12/17 03:32:19;;;;;;;9.98;7.03;;;10.10;94.30;;;;;;5099183;28;20024;-94
2020/12/17 03:34:45;;;;;;;10.07;6.93;;;10.10;94.30;;;;;;5084005;28;20089;-93
2020/12/17 03:37:11;;;;;;;11.85;7.13;;;10.10;94.30;;;;;;5082819;28;20081;-94
2020/12/17 03:39:37;;;;;;;9.82;7.30;;;10.10;94.30;;;;;;5047104;28;20421;-93
2020/12/17 03:42:03;;;;;;;9.93;6.95;;;10.20;94.20;;;;;;5063905;28;20036;-94
2020/12/17 03:44:29;;;;;;;11.32;7.22;;;10.20;94.20;;;;;;5064554;28;20009;-94
2020/12/17 03:46:55;;;;;;;10.98;7.10;;;10.20;94.20;;;;;;5047191;28;20028;-94
2020/12/17 03:49:20;;;;;;;10.73;7.00;;;10.20;94.20;;;;;;5063919;28;20009;-93
2020/12/17 03:51:46;;;;;;;11.35;6.65;;;10.20;94.20;;;;;;5064247;28;20033;-95
2020/12/17 03:54:13;;;;;;;9.10;7.35;;;10.20;94.30;;;;;;5064095;28;20037;-94
2020/12/17 03:56:38;;;;;;;13.13;7.63;;;10.30;94.30;;;;;;5064937;28;20036;-94
2020/12/17 03:59:04;;;;;;;14.30;8.35;;;10.30;94.30;;;;;;5064920;28;20393;-96
2020/12/17 04:01:30;;;;;;;10.93;8.43;;;10.20;94.30;;;;;;5065596;28;20029;-95
2020/12/17 04:03:56;;;;;;;10.23;7.40;;;10.20;94.50;;;;;;5067824;28;20028;-96
2020/12/17 04:06:22;;;;;;;12.35;8.15;;;10.20;94.60;;;;;;5053792;28;20032;-95
2020/12/17 04:08:47;;;;;;;10.50;7.68;;;10.20;94.60;;;;;;5068871;28;20024;-95
2020/12/17 04:11:13;;;;;;;10.55;7.97;;;10.20;94.70;;;;;;5066993;28;20028;-95
2020/12/17 04:13:39;;;;;;;12.15;7.45;;;10.20;94.70;;;;;;5067142;28;20024;-94
2020/12/17 04:16:05;;;;;;;14.75;8.35;;;10.20;94.80;;;;;;5066352;28;20016;-94
2020/12/17 04:18:31;;;;;;;11.70;8.18;;;10.20;94.80;;;;;;5049072;28;20031;-95
2020/12/17 04:20:57;;;;;;;12.88;8.60;;;10.20;94.80;;;;;;5065734;28;20008;-95
2020/12/17 04:23:23;;;;;;;11.10;8.15;;;10.10;94.90;;;;;;5079725;28;20111;-94
2020/12/17 04:25:49;;;;;;;10.93;7.85;;;10.20;95.00;;;;;;5082436;28;20477;-95
2020/12/17 04:28:14;;;;;;;13.75;8.85;;;10.10;95.10;;;;;;5066101;28;20032;-94
2020/12/17 04:30:40;;;;;;;15.15;8.27;;;10.10;95.20;;;;;;5068469;28;20492;-96
2020/12/17 04:33:06;;;;;;;11.88;8.57;;;10.10;95.40;;;;;;5083271;28;20031;-95
2020/12/17 04:35:32;;;;;;;12.48;8.75;;;10.10;95.60;;;;;;5063753;28;20024;-95
2020/12/17 04:37:57;;;;;;;14.43;9.25;;;10.10;95.60;;;;;;5048684;28;20386;-94
2020/12/17 04:40:23;;;;;;;12.60;9.13;;;10.10;95.70;;;;;;5063742;28;20089;-94
2020/12/17 04:42:49;;;;;;;14.77;8.75;;;10.10;95.80;;;;;;5081135;28;20051;-94
2020/12/17 04:45:15;;;;;;;12.93;8.20;;;10.10;95.90;;;;;;5079298;28;20024;-95
2020/12/17 04:47:45;;;;;;;16.27;9.30;;;10.10;95.90;;;;;;5064532;28;20035;-94
2020/12/17 04:50:14;;;;;;;12.85;9.10;;;10.10;96.10;;;;;;5084618;28;20362;-92
2020/12/17 04:52:41;;;;;;;12.35;8.43;;;10.10;96.10;;;;;;5090058;28;20028;-93
2020/12/17 04:55:08;;;;;;;12.23;9.35;;;10.10;96.20;;;;;;5069806;28;20534;-96
2020/12/17 04:57:45;;;;;;;12.25;8.88;;;10.10;96.20;;;;;;5062110;28;20511;-95
2020/12/17 05:00:12;;;;;;;11.82;8.43;;;10.20;96.30;;;;;;5065772;28;20033;-95
2020/12/17 05:02:38;;;;;;;12.77;9.20;;;10.10;96.30;;;;;;5066659;28;20020;-96
2020/12/17 05:05:06;;;;;;;14.25;10.15;;;10.20;96.30;;;;;;5053156;28;20090;-96
2020/12/17 05:07:38;;;;;;;14.38;10.02;;;10.20;96.30;;;;;;5071771;28;20032;-95
2020/12/17 05:10:12;;;;;;;17.65;10.35;;;10.10;96.40;;;;;;5076232;28;20052;-96
2020/12/17 05:12:40;;;;;;;15.85;9.93;;;10.10;96.50;;;;;;5080006;28;20039;-96
2020/12/17 05:15:05;;;;;;;13.07;10.25;;;10.10;96.60;;;;;;5073889;23;20048;-86
2020/12/17 05:17:32;;;;;;;14.63;10.10;;;10.10;96.60;;;;;;5094864;28;20028;-87
2020/12/17 05:19:58;;;;;;;16.85;11.38;;;10.10;96.70;;;;;;5039307;28;20075;-87
2020/12/17 05:22:24;;;;;;;15.52;11.00;;;10.10;96.70;;;;;;5069050;28;20035;-86
2020/12/17 05:24:49;;;;;;;14.45;9.75;;;10.10;96.80;;;;;;5080429;28;20016;-86
2020/12/17 05:27:15;;;;;;;17.08;10.43;;;10.10;96.90;;;;;;5061036;28;20031;-87
2020/12/17 05:29:42;;;;;;;15.32;10.00;;;10.10;97.00;;;;;;5077747;28;20035;-87
2020/12/17 05:32:10;;;;;;;17.35;10.70;;;10.20;96.90;;;;;;5095196;28;20487;-87
2020/12/17 05:34:38;;;;;;;12.55;9.90;;;10.20;96.80;;;;;;5079542;28;20127;-88
2020/12/17 05:37:06;;;;;;;14.48;9.63;;;10.20;96.70;;;;;;5060893;28;20060;-88
2020/12/17 05:39:33;;;;;;;14.38;10.85;;;10.30;96.70;;;;;;5070016;28;20054;-87
2020/12/17 05:41:59;;;;;;;14.00;9.93;;;10.30;96.60;;;;;;5093727;28;20115;-87
2020/12/17 05:44:31;;;;;;;9.90;8.55;;;10.30;96.60;;;;;;5073650;28;20059;-88
2020/12/17 05:46:57;;;;;;;12.27;7.97;;;10.40;96.60;;;;;;5075464;28;20031;-87
2020/12/17 05:49:28;;;;;;;12.18;9.30;;;10.40;96.60;;;;;;5057592;28;20025;-87
2020/12/17 05:52:16;;;;;;;17.25;10.52;;;10.40;96.50;;;;;;5075345;28;20025;-87
2020/12/17 05:54:53;;;;;;;13.85;9.20;;;10.40;96.50;;;;;;5074489;28;20050;-87
2020/12/17 05:57:18;;;;;;;13.10;8.52;;;10.40;96.60;;;;;;5074416;28;20029;-88
2020/12/17 05:59:58;;;;;;;13.93;10.30;;;10.40;96.60;;;;;;5064389;28;20024;-88
2020/12/17 06:02:35;;;;;;;13.55;9.52;;;10.40;96.50;;;;;;5074860;28;20123;-87
2020/12/17 06:05:12;;;;;;;16.25;10.73;;;10.40;96.50;;;;;;5083298;28;20012;-87
2020/12/17 06:07:45;;;;;;;14.75;11.10;;;10.40;96.50;;;;;;5076444;28;20032;-88
2020/12/17 06:10:28;;;;;;;13.63;9.52;;;10.40;96.50;;;;;;5086261;28;20050;-88
2020/12/17 06:12:59;;;;;;;14.50;9.40;;;10.40;96.50;;;;;;5062739;28;20019;-88
2020/12/17 06:15:26;;;;;;;15.50;10.95;;;10.50;96.50;;;;;;5094792;28;20048;-89
2020/12/17 06:17:55;;;;;;;14.75;10.68;;;10.50;96.40;;;;;;5083977;28;20032;-88
2020/12/17 06:20:22;;;;;;;15.63;10.90;;;10.50;96.40;;;;;;5082379;28;20024;-87
2020/12/17 06:22:56;;;;;;;11.98;9.88;;;10.50;96.40;;;;;;5085132;28;20032;-90
2020/12/17 06:25:23;;;;;;;14.95;10.52;;;10.50;96.40;;;;;;5116325;28;20023;-89
2020/12/17 06:27:53;;;;;;;20.90;14.77;;;10.50;96.40;;;;;;5113516;28;20005;-88
2020/12/17 06:30:24;;;;;;;17.45;12.95;;;10.50;96.30;;;;;;5069053;22;20060;-91
2020/12/17 06:32:54;;;;;;;14.32;11.25;;;10.50;96.30;;;;;;5054125;28;20021;-91
2020/12/17 06:35:29;;;;;;;19.25;13.93;;;10.40;96.40;;;;;;5037399;28;20047;-92
2020/12/17 06:38:05;;;;;;;16.70;13.63;;;10.40;96.30;;;;;;5056632;28;20040;-90
2020/12/17 06:40:31;;;;;;;19.48;14.80;;;10.40;96.40;;;;;;5056142;28;20025;-88
2020/12/17 06:42:56;;;;;;;17.65;13.93;;;10.40;96.30;;;;;;5055502;28;20028;-91
2020/12/17 06:45:27;;;;;;;20.13;16.27;;;10.40;96.30;;;;;;5022898;28;20040;-91
2020/12/17 06:47:53;;;;;;;17.27;14.63;;;10.30;96.30;;;;;;5054708;28;20036;-91
2020/12/17 06:50:23;;;;;;;20.67;16.55;;;10.40;96.30;;;;;;5057550;28;20059;-91
2020/12/17 06:53:16;;;;;;;15.88;13.55;;;10.40;96.30;;;;;;5028821;28;20035;-90
2020/12/17 06:55:45;;;;;;;16.80;13.32;;;10.40;96.30;;;;;;5060179;28;20106;-89
2020/12/17 06:58:17;;;;;;;16.27;13.77;;;10.30;96.20;;;;;;5060684;28;20052;-90
2020/12/17 07:00:43;;;;;;;15.40;13.30;;;10.30;96.10;;;;;;5044451;28;20025;-90
2020/12/17 07:03:09;;;;;;;17.85;14.60;;;10.30;96.20;;;;;;5004949;28;20029;-91
2020/12/17 07:05:36;;;;;;;15.82;13.15;;;10.30;96.10;;;;;;5005798;28;20096;-91
2020/12/17 07:08:02;;;;;;;17.05;13.95;;;10.30;96.20;;;;;;5021295;28;20029;-91
2020/12/17 07:10:30;;;;;;;18.88;15.23;;;10.40;96.10;;;;;;5004811;28;20489;-89
2020/12/17 07:12:56;;;;;;;16.63;14.52;;;10.30;96.00;;;;;;5020545;28;20069;-89
2020/12/17 07:15:36;;;;;;;21.60;16.70;;;10.30;96.10;;;;;;5036890;28;20025;-89
2020/12/17 07:18:24;;;;;;;17.70;14.05;;;10.40;96.10;;;;;;5036981;28;20032;-89
2020/12/17 07:21:06;;;;;;;22.58;17.70;;;10.40;96.10;;;;;;5023948;28;20026;-89
2020/12/17 07:23:36;;;;;;;17.98;15.90;;;10.30;96.00;;;;;;5033497;28;20447;-89
2020/12/17 07:26:12;;;;;;;21.15;16.85;;;10.30;96.10;;;;;;5016820;28;20032;-89
2020/12/17 07:28:37;;;;;;;21.95;16.88;;;10.30;96.10;;;;;;5036355;28;20041;-89
2020/12/17 07:31:04;;;;;;;25.30;19.15;;;10.30;96.10;;;;;;5000445;28;20029;-89
2020/12/17 07:33:36;;;;;;;21.08;17.60;;;10.30;96.00;;;;;;5035731;28;20116;-89
2020/12/17 07:36:03;;;;;;;23.15;19.00;;;10.30;96.10;;;;;;5036489;28;20032;-87
2020/12/17 07:38:29;;;;;;;22.92;17.83;;;10.30;96.10;;;;;;5031566;28;20061;-89
2020/12/17 07:40:55;;;;;;;25.02;20.05;;;10.30;96.10;;;;;;4999809;28;20520;-89
2020/12/17 07:43:24;;;;;;;26.77;20.38;;;10.30;96.10;;;;;;4999229;28;20069;-89
2020/12/17 07:45:55;;;;;;;19.75;16.60;;;10.30;96.10;;;;;;5035093;28;20017;-89
2020/12/17 07:48:51;;;;;;;23.35;18.38;;;10.30;96.20;;;;;;5028349;28;20143;-89
2020/12/17 07:51:16;;;;;;;28.38;20.85;;;10.40;96.10;;;;;;5044396;28;20032;-89
2020/12/17 07:53:46;;;;;;;21.55;17.25;;;10.30;96.00;;;;;;5035122;28;20021;-89
2020/12/17 07:56:12;;;;;;;27.70;21.02;;;10.30;96.10;;;;;;5021054;28;20098;-89
2020/12/17 07:58:39;;;;;;;27.27;22.05;;;10.30;96.00;;;;;;5030173;28;20037;-90
2020/12/17 08:01:06;;;;;;;24.27;18.90;;;10.30;95.90;;;;;;5037035;28;20033;-90
2020/12/17 08:03:47;;;;;;;22.45;18.67;;;10.30;96.10;;;;;;5024971;28;20024;-90
2020/12/17 08:06:15;;;;;;;22.35;18.70;;;10.30;96.00;;;;;;5036673;28;20128;-89
2020/12/17 08:08:42;;;;;;;21.83;18.70;;;10.30;96.00;;;;;;5018571;28;20026;-90
2020/12/17 08:11:09;;;;;;;23.05;20.15;;;10.30;96.30;;;;;;5035268;28;20021;-90
2020/12/17 08:13:35;;;;;;;25.90;20.80;;;10.30;96.00;;;;;;5038172;28;20029;-89
2020/12/17 08:16:04;;;;;;;24.08;19.92;;;10.30;96.20;;;;;;5038276;28;20462;-90
2020/12/17 08:18:32;;;;;;;24.83;19.55;;;10.30;95.90;;;;;;5022037;28;20029;-90
2020/12/17 08:21:11;;;;;;;26.45;21.48;;;10.30;95.90;;;;;;5037995;28;20020;-90
2020/12/17 08:23:39;;;;;;;27.00;21.05;;;10.20;95.90;;;;;;5038497;28;20040;-90
2020/12/17 08:26:08;;;;;;;25.92;21.00;;;10.20;96.00;;;;;;5018664;28;20029;-89
2020/12/17 08:28:36;;;;;;;24.48;19.98;;;10.20;96.00;;;;;;5029617;28;20037;-89
2020/12/17 08:31:06;;;;;;;23.35;18.70;;;10.10;96.10;;;;;;5025514;28;20026;-90
2020/12/17 08:33:40;;;;;;;23.80;18.75;;;10.10;96.20;;;;;;5039228;28;20017;-89
2020/12/17 08:36:14;;;;;;;22.50;18.98;;;10.10;96.20;;;;;;5038453;28;20021;-90
2020/12/17 08:38:41;;;;;;;19.60;16.83;;;10.10;96.20;;;;;;5038703;28;20021;-89
2020/12/17 08:41:08;;;;;;;20.75;16.00;;;10.10;96.20;;;;;;5038238;28;20048;-89
2020/12/17 08:43:45;;;;;;;20.13;16.17;;;10.10;96.30;;;;;;5023635;28;20025;-94
2020/12/17 08:46:16;;;;;;;20.20;15.70;;;10.10;96.40;;;;;;5040606;28;20466;-93
2020/12/17 08:49:21;;;;;;;17.98;15.20;;;10.10;96.40;;;;;;5041012;28;20017;-93
2020/12/17 08:51:47;;;;;;;19.73;15.27;;;10.00;96.30;;;;;;5034175;28;20079;-93
2020/12/17 08:54:32;;;;;;;19.70;15.80;;;10.10;96.30;;;;;;5023897;28;20040;-93
2020/12/17 08:57:07;;;;;;;18.98;15.70;;;10.00;96.30;;;;;;5040228;28;20032;-92
2020/12/17 08:59:33;;;;;;;18.55;14.48;;;10.00;96.30;;;;;;5040750;28;20021;-93
2020/12/17 09:01:59;;;;;;;18.27;15.43;;;10.10;96.30;;;;;;5039112;28;20029;-93
2020/12/17 09:04:26;;;;;;;18.85;13.73;;;10.00;96.30;;;;;;5004181;28;20084;-94
2020/12/17 09:07:02;;;;;;;19.00;15.90;;;10.00;96.30;;;;;;5020360;28;20026;-93
2020/12/17 09:09:32;;;;;;;17.42;14.70;;;10.00;96.30;;;;;;5023054;28;20083;-93
2020/12/17 09:11:59;;;;;;;18.80;15.52;;;10.00;96.30;;;;;;5043932;28;20017;-91
2020/12/17 09:14:43;;;;;;;18.73;15.02;;;10.00;96.20;;;;;;5002038;28;20118;-92
2020/12/17 09:17:13;;;;;;;20.30;15.63;;;10.00;96.30;;;;;;5018636;28;20040;-91
2020/12/17 09:19:39;;;;;;;21.80;16.40;;;10.00;96.30;;;;;;5027227;28;20029;-91
2020/12/17 09:22:05;;;;;;;19.75;15.23;;;10.00;96.30;;;;;;5037979;28;20502;-91
2020/12/17 09:24:35;;;;;;;17.35;13.90;;;10.00;96.30;;;;;;5019556;28;20044;-91
2020/12/17 09:27:24;;;;;;;17.67;14.63;;;10.00;96.30;;;;;;5020615;28;20029;-91
2020/12/17 09:30:00;;;;;;;16.35;12.15;;;10.00;96.20;;;;;;5033691;28;20056;-90
2020/12/17 09:32:26;;;;;;;13.85;11.45;;;9.90;96.20;;;;;;5050019;28;20166;-89
2020/12/17 09:35:02;;;;;;;16.25;11.55;;;9.90;96.10;;;;;;5055069;28;20108;-91
2020/12/17 09:37:28;;;;;;;14.85;9.55;;;9.90;96.10;;;;;;5058932;28;20189;-90
2020/12/17 09:39:54;;;;;;;14.70;10.98;;;9.90;96.10;;;;;;5040971;28;20029;-91
2020/12/17 09:42:20;;;;;;;15.93;11.52;;;9.90;96.10;;;;;;5046842;28;20077;-91
2020/12/17 09:44:45;;;;;;;12.68;9.07;;;9.90;96.00;;;;;;5040756;28;20021;-90
2020/12/17 09:47:11;;;;;;;13.73;9.63;;;9.90;96.00;;;;;;5024861;28;20124;-90
2020/12/17 09:49:46;;;;;;;10.55;8.38;;;9.90;95.90;;;;;;5022311;28;20021;-90
2020/12/17 09:52:12;;;;;;;13.00;8.05;;;9.90;95.80;;;;;;5019081;28;20381;-90
2020/12/17 09:54:43;;;;;;;11.40;9.10;;;9.90;95.60;;;;;;5020510;28;20020;-91
2020/12/17 09:57:11;;;;;;;14.45;9.80;;;9.90;95.70;;;;;;5040318;28;20044;-92
2020/12/17 09:59:38;;;;;;;13.57;9.82;;;9.90;95.90;;;;;;5056972;28;20036;-90
2020/12/17 10:02:05;;;;;;;12.60;8.00;;;10.00;96.00;;;;;;5039905;28;20028;-90
2020/12/17 10:04:31;;;;;;;10.68;7.15;;;10.00;95.80;;;;;;5056494;28;20017;-89
2020/12/17 10:06:57;;;;;;;12.30;7.40;;;10.00;95.60;;;;;;5041749;28;20027;-91
2020/12/17 10:09:41;;;;;;;14.95;7.32;;;10.00;95.40;;;;;;5056312;28;20322;-90
2020/12/17 10:12:07;;;;;;;11.02;7.45;;;10.00;95.40;;;;;;5016939;28;20024;-90
2020/12/17 10:14:33;;;;;;;12.27;7.20;;;10.10;95.50;;;;;;5020530;28;20505;-90
2020/12/17 10:17:00;;;;;;;9.88;7.57;;;10.10;95.30;;;;;;5031045;28;20024;-90
2020/12/17 10:19:46;;;;;;;9.25;6.45;;;10.10;95.40;;;;;;5055483;28;20020;-90
2020/12/17 10:22:12;;;;;;;10.40;6.20;;;10.20;95.40;;;;;;5038421;28;20043;-89
2020/12/17 10:24:37;;;;;;;9.85;6.50;;;10.20;95.00;;;;;;5055845;28;20021;-90
2020/12/17 10:27:03;;;;;;;9.32;5.90;;;10.10;94.70;;;;;;5056356;28;20031;-89
2020/12/17 10:29:29;;;;;;;11.25;6.00;;;10.20;95.00;;;;;;5038293;28;20106;-89
2020/12/17 10:31:58;;;;;;;9.35;6.10;;;10.20;95.00;;;;;;5039408;28;20028;-90
2020/12/17 10:34:24;;;;;;;14.32;6.70;;;10.30;95.00;;;;;;5054636;28;20025;-90
2020/12/17 10:36:50;;;;;;;9.65;5.50;;;10.20;94.80;;;;;;5055572;28;20021;-90
2020/12/17 10:39:16;;;;;;;11.07;6.15;;;10.20;94.70;;;;;;5039374;28;20025;-90
2020/12/17 10:41:42;;;;;;;11.88;5.90;;;10.20;94.50;;;;;;5055451;28;20016;-89
2020/12/17 10:44:08;;;;;;;10.43;5.95;;;10.20;94.40;;;;;;5056112;28;20026;-90
2020/12/17 10:46:36;;;;;;;13.75;6.25;;;10.20;94.30;;;;;;5039194;28;20028;-90
2020/12/17 10:49:03;;;;;;;8.90;5.05;;;10.20;94.50;;;;;;5054675;28;20017;-90
2020/12/17 10:51:30;;;;;;;12.43;7.68;;;10.20;94.60;;;;;;5037124;28;20090;-89
2020/12/17 10:53:55;;;;;;;11.15;6.03;;;10.30;94.60;;;;;;5039450;28;20025;-90
2020/12/17 10:56:21;;;;;;;11.55;6.00;;;10.30;94.50;;;;;;5034559;28;20047;-89
2020/12/17 10:58:49;;;;;;;13.25;6.03;;;10.30;94.50;;;;;;5054919;28;20021;-89
2020/12/17 11:01:19;;;;;;;12.07;5.95;;;10.30;94.30;;;;;;5022396;28;20487;-89
2020/12/17 11:03:45;;;;;;;12.70;6.28;;;10.40;94.30;;;;;;5038578;28;20427;-89
2020/12/17 11:06:18;;;;;;;11.18;6.18;;;10.40;94.50;;;;;;5038334;28;20538;-89
2020/12/17 11:08:44;;;;;;;11.20;5.95;;;10.50;94.30;;;;;;5055480;28;20032;-89
2020/12/17 11:11:11;;;;;;;15.45;5.32;;;10.50;94.20;;;;;;5035332;28;20405;-89
2020/12/17 11:13:37;;;;;;;11.70;5.60;;;10.50;94.00;;;;;;5055078;28;20035;-89
2020/12/17 11:16:03;;;;;;;11.43;5.65;;;10.60;93.70;;;;;;5038268;28;20025;-89
2020/12/17 11:18:29;;;;;;;10.25;5.63;;;10.60;94.00;;;;;;5038453;28;20393;-90
2020/12/17 11:20:55;;;;;;;12.00;5.35;;;10.70;94.00;;;;;;5037856;28;20024;-90
2020/12/17 11:23:20;;;;;;;10.38;5.22;;;10.70;93.70;;;;;;5022332;28;20377;-90
2020/12/17 11:25:49;;;;;;;11.25;5.20;;;10.70;93.50;;;;;;5039103;28;20083;-89
2020/12/17 11:28:40;;;;;;;10.13;5.50;;;10.70;93.20;;;;;;5020842;28;20150;-90
2020/12/17 11:31:07;;;;;;;8.93;5.00;;;10.70;93.50;;;;;;4996787;28;20045;-91
2020/12/17 11:33:33;;;;;;;9.30;5.15;;;10.70;93.10;;;;;;4999802;28;20280;-88
2020/12/17 11:35:58;;;;;;;9.27;5.78;;;10.70;93.30;;;;;;5006890;28;20144;-90
2020/12/17 11:38:24;;;;;;;9.40;5.55;;;10.80;93.60;;;;;;5003013;28;20475;-90
2020/12/17 11:40:50;;;;;;;15.25;6.82;;;10.90;93.40;;;;;;5002802;28;20044;-89
2020/12/17 11:43:16;;;;;;;11.57;5.00;;;10.90;93.10;;;;;;5005440;28;20033;-90
2020/12/17 11:45:41;;;;;;;11.00;5.60;;;10.90;92.80;;;;;;5036039;28;20013;-90
2020/12/17 11:48:07;;;;;;;12.02;5.80;;;10.90;93.10;;;;;;5007598;28;20022;-90
2020/12/17 11:50:33;;;;;;;10.57;5.13;;;10.90;92.60;;;;;;5002650;28;20018;-90
2020/12/17 11:52:58;;;;;;;11.50;6.07;;;10.90;92.80;;;;;;5002383;28;20498;-90
2020/12/17 11:55:24;;;;;;;9.82;5.13;;;10.90;93.00;;;;;;5008553;28;20025;-90
2020/12/17 11:57:50;;;;;;;9.77;4.90;;;11.00;93.00;;;;;;5011744;28;20049;-90
2020/12/17 12:00:16;;;;;;;10.13;5.20;;;11.00;93.00;;;;;;5022559;28;20037;-90
2020/12/17 12:02:42;;;;;;;13.00;5.43;;;11.00;93.00;;;;;;5021674;28;20032;-91
2020/12/17 12:05:09;;;;;;;12.73;4.70;;;11.00;92.60;;;;;;5018431;28;20044;-90
2020/12/17 12:07:35;;;;;;;13.38;5.60;;;11.00;92.80;;;;;;5038880;28;20029;-90
2020/12/17 12:10:02;;;;;;;11.07;4.80;;;11.00;93.00;;;;;;5008543;28;20036;-90
2020/12/17 12:12:29;;;;;;;12.27;5.72;;;11.10;93.20;;;;;;5037612;28;20032;-91
2020/12/17 12:14:54;;;;;;;9.00;4.63;;;11.10;92.30;;;;;;5004244;28;20041;-91
2020/12/17 12:17:20;;;;;;;12.02;4.78;;;11.10;92.90;;;;;;5016978;28;20450;-91
2020/12/17 12:19:49;;;;;;;13.57;5.38;;;11.10;92.70;;;;;;5001404;28;20026;-89
2020/12/17 12:22:14;;;;;;;11.18;4.70;;;11.20;92.40;;;;;;5003765;28;20028;-90
2020/12/17 12:24:40;;;;;;;10.18;4.85;;;11.20;92.50;;;;;;5032679;23;20052;-86
2020/12/17 12:27:06;;;;;;;10.73;4.78;;;11.20;92.20;;;;;;5074764;28;20532;-87
2020/12/17 12:29:32;;;;;;;12.15;4.78;;;11.10;91.90;;;;;;5059254;28;20021;-87
2020/12/17 12:31:57;;;;;;;8.70;4.20;;;11.10;92.30;;;;;;5061012;28;20461;-87
2020/12/17 12:34:25;;;;;;;11.45;5.47;;;11.20;92.40;;;;;;5080167;28;20386;-88
2020/12/17 12:36:55;;;;;;;13.52;4.63;;;11.20;92.40;;;;;;5059525;28;20543;-88
2020/12/17 12:39:21;;;;;;;11.37;4.90;;;11.20;92.10;;;;;;5077328;28;20358;-87
2020/12/17 12:41:49;;;;;;;14.63;5.15;;;11.20;92.00;;;;;;5069813;28;20282;-87
2020/12/17 12:44:15;;;;;;;13.15;4.57;;;11.10;91.80;;;;;;5070459;28;20024;-87
2020/12/17 12:46:42;;;;;;;12.50;4.93;;;11.10;92.00;;;;;;5074798;28;20020;-87